| time (UTC) | temp F | wind direction | speed knots | gust knots | rain 1hr in | rain 24hr in | rain mn in | humidity % | barometer mb |
| 20260901080327 | 60 | 31 | 0.0 | 0.0 | 0.00 | 0.00 | 0.00 | 73 | 1025.0 |
| 20260901074824 | 60 | 26 | 0.0 | 0.0 | 0.00 | 0.00 | 0.00 | 73 | 1024.8 |
| 20260901073319 | 60 | 19 | 0.9 | 0.0 | 0.00 | 0.00 | 0.00 | 72 | 1025.0 |
| 20260901071836 | 60 | 36 | 0.0 | 0.0 | 0.00 | 0.00 | 0.00 | 72 | 1024.8 |
| 20260901070325 | 60 | 20 | 0.0 | 0.0 | 0.00 | 0.00 | 0.00 | 71 | 1024.7 |
| 20260901064819 | 60 | 30 | 0.9 | 0.0 | 0.00 | 0.00 | 0.00 | 70 | 1024.8 |
| 20260901063315 | 60 | 360 | 1.7 | 0.0 | 0.00 | 0.00 | 0.00 | 70 | 1024.8 |
| 20260901061826 | 59 | 5 | 0.0 | 0.0 | 0.00 | 0.00 | 0.00 | 72 | 1024.7 |
| 20260901060321 | 59 | 24 | 0.0 | 0.0 | 0.00 | 0.00 | 0.00 | 75 | 1024.6 |
| 20260901054811 | 59 | 28 | 0.0 | 0.0 | 0.00 | 0.00 | 0.02 | 78 | 1024.5 |
| 20260901053332 | 59 | 12 | 0.0 | 0.0 | 0.00 | 0.00 | 0.02 | 78 | 1024.8 |
| 20260901051821 | 59 | 347 | 0.9 | 0.0 | 0.00 | 0.00 | 0.02 | 78 | 1024.6 |
| 20260901050359 | 59 | 51 | 1.7 | 0.0 | 0.00 | 0.00 | 0.02 | 77 | 1024.2 |
| 20260901044834 | 59 | 12 | 0.0 | 0.0 | 0.00 | 0.00 | 0.02 | 77 | 1025.5 |
| 20260901043326 | 59 | 17 | 0.0 | 0.0 | 0.00 | 0.00 | 0.02 | 78 | 1025.8 |
| 20260901041840 | 60 | 19 | 0.0 | 0.0 | 0.00 | 0.00 | 0.02 | 77 | 1025.8 |
| 20260901040316 | 60 | 22 | 2.6 | 0.0 | 0.00 | 0.00 | 0.02 | 75 | 1025.7 |
| 20260901034834 | 60 | 30 | 1.7 | 0.0 | 0.00 | 0.00 | 0.02 | 75 | 1026.4 |
| 20260901033332 | 60 | 33 | 1.7 | 0.0 | 0.00 | 0.00 | 0.02 | 75 | 1026.3 |
| 20260901031832 | 60 | 34 | 0.0 | 0.0 | 0.00 | 0.00 | 0.02 | 76 | 1026.3 |
| 20260901030318 | 60 | 337 | 2.6 | 0.0 | 0.00 | 0.00 | 0.02 | 75 | 1026.0 |
| 20260901024818 | 61 | 30 | 3.5 | 0.0 | 0.00 | 0.00 | 0.02 | 72 | 1025.7 |
| 20260901023341 | 61 | 38 | 0.9 | 0.0 | 0.00 | 0.00 | 0.02 | 72 | 1026.0 |
| 20260901021832 | 61 | 305 | 0.0 | 0.0 | 0.00 | 0.00 | 0.02 | 73 | 1026.3 |
| 20260901020342 | 61 | 5 | 0.0 | 0.0 | 0.00 | 0.00 | 0.02 | 76 | 1026.2 |
| 20260901014814 | 61 | 38 | 3.5 | 0.0 | 0.00 | 0.00 | 0.02 | 73 | 1025.7 |
| 20260901013339 | 63 | 17 | 1.7 | 0.0 | 0.00 | 0.00 | 0.02 | 68 | 1026.1 |
| 20260901011844 | 64 | 22 | 0.0 | 0.0 | 0.00 | 0.00 | 0.02 | 66 | 1025.9 |
| 20260901010324 | 65 | 37 | 0.0 | 0.0 | 0.00 | 0.00 | 0.02 | 64 | 1026.0 |
| 20260901004828 | 64 | 211 | 0.0 | 0.0 | 0.00 | 0.00 | 0.02 | 66 | 1025.9 |
| 20260901003328 | 64 | 201 | 0.0 | 0.0 | 0.00 | 0.00 | 0.02 | 66 | 1025.8 |
| 20260901001822 | 65 | 46 | 1.7 | 0.0 | 0.00 | 0.00 | 0.02 | 57 | 1025.5 |
| 20260901000331 | 67 | 350 | 5.2 | 0.0 | 0.00 | 0.00 | 0.00 | 56 | 1024.5 |
| 20260831234827 | 74 | 153 | 0.0 | 0.0 | 0.00 | 0.00 | 0.00 | 40 | 1024.5 |
| 20260831233326 | 74 | 194 | 0.9 | 0.0 | 0.00 | 0.00 | 0.00 | 37 | 1024.1 |
| 20260831231813 | 75 | 153 | 1.7 | 0.0 | 0.00 | 0.00 | 0.00 | 36 | 1023.8 |
| 20260831230311 | 75 | 155 | 0.9 | 0.0 | 0.00 | 0.00 | 0.00 | 36 | 1023.8 |
| 20260831224831 | 75 | 159 | 0.9 | 0.0 | 0.00 | 0.00 | 0.00 | 37 | 1023.8 |
| 20260831223322 | 74 | 144 | 0.9 | 0.0 | 0.00 | 0.00 | 0.00 | 39 | 1024.6 |
| 20260831221815 | 74 | 116 | 0.9 | 0.0 | 0.00 | 0.00 | 0.00 | 42 | 1023.9 |
| 20260831220326 | 74 | 100 | 2.6 | 0.0 | 0.00 | 0.00 | 0.00 | 42 | 1024.0 |
| 20260831214852 | 74 | 130 | 0.9 | 0.0 | 0.00 | 0.00 | 0.00 | 42 | 1024.0 |
| 20260831213321 | 72 | 128 | 0.0 | 0.0 | 0.00 | 0.00 | 0.00 | 48 | 1024.4 |
| 20260831211819 | 69 | 62 | 0.0 | 0.0 | 0.00 | 0.00 | 0.00 | 49 | 1024.9 |
| 20260831210323 | 71 | 269 | 4.3 | 0.0 | 0.00 | 0.00 | 0.00 | 49 | 1025.4 |
| 20260831204820 | 77 | 126 | 0.9 | 0.0 | 0.00 | 0.00 | 0.00 | 34 | 1025.0 |
| 20260831203316 | 78 | 60 | 0.9 | 0.0 | 0.00 | 0.00 | 0.00 | 29 | 1025.0 |
| 20260831201822 | 79 | 331 | 1.7 | 0.0 | 0.00 | 0.00 | 0.00 | 28 | 1025.3 |
| 20260831200320 | 81 | 17 | 0.9 | 0.0 | 0.00 | 0.00 | 0.00 | 25 | 1025.5 |
| 20260831194815 | 81 | 17 | 2.6 | 0.0 | 0.00 | 0.00 | 0.00 | 25 | 1025.0 |
| 20260831193327 | 81 | 284 | 2.6 | 0.0 | 0.00 | 0.00 | 0.00 | 26 | 1025.2 |
| 20260831191833 | 81 | 351 | 2.6 | 0.0 | 0.00 | 0.00 | 0.00 | 25 | 1025.1 |
| 20260831190351 | 80 | 22 | 3.5 | 0.0 | 0.00 | 0.00 | 0.00 | 24 | 1025.3 |
| 20260831184836 | 79 | 360 | 4.3 | 0.0 | 0.00 | 0.00 | 0.00 | 25 | 1025.4 |
| 20260831183324 | 79 | 22 | 3.5 | 0.0 | 0.00 | 0.00 | 0.00 | 25 | 1025.7 |
| 20260831181841 | 78 | 13 | 1.7 | 0.0 | 0.00 | 0.00 | 0.00 | 29 | 1025.9 |
| 20260831180327 | 77 | 221 | 0.0 | 0.0 | 0.00 | 0.00 | 0.00 | 33 | 1026.0 |
| 20260831174848 | 76 | 312 | 1.7 | 0.0 | 0.00 | 0.00 | 0.00 | 33 | 1026.3 |
| 20260831173322 | 78 | 201 | 0.0 | 0.0 | 0.00 | 0.00 | 0.00 | 33 | 1026.3 |
| 20260831171843 | 76 | 155 | 0.0 | 0.0 | 0.00 | 0.00 | 0.00 | 34 | 1026.4 |
| 20260831170327 | 75 | 154 | 0.0 | 0.0 | 0.00 | 0.00 | 0.00 | 36 | 1026.4 |
| 20260831164902 | 72 | 152 | 0.0 | 0.0 | 0.00 | 0.00 | 0.00 | 38 | 1026.4 |
| 20260831163323 | 70 | 145 | 0.9 | 0.0 | 0.00 | 0.00 | 0.00 | 41 | 1026.4 |
| 20260831161818 | 68 | 81 | 0.0 | 0.0 | 0.00 | 0.00 | 0.00 | 43 | 1026.3 |
| 20260831160318 | 67 | 49 | 0.0 | 0.0 | 0.00 | 0.00 | 0.00 | 46 | 1026.3 |
| 20260831154830 | 66 | 49 | 0.0 | 0.0 | 0.00 | 0.00 | 0.00 | 47 | 1026.3 |
| 20260831153327 | 65 | 46 | 0.0 | 0.0 | 0.00 | 0.00 | 0.00 | 45 | 1026.3 |
| 20260831151831 | 64 | 46 | 0.0 | 0.0 | 0.00 | 0.00 | 0.00 | 50 | 1026.1 |
| 20260831150326 | 62 | 46 | 0.0 | 0.0 | 0.00 | 0.00 | 0.00 | 52 | 1026.1 |
| 20260831144820 | 62 | 46 | 0.0 | 0.0 | 0.00 | 0.00 | 0.00 | 52 | 1026.1 |
| 20260831143325 | 60 | 46 | 0.0 | 0.0 | 0.00 | 0.00 | 0.00 | 55 | 1026.1 |
| 20260831141842 | 59 | 46 | 0.0 | 0.0 | 0.00 | 0.00 | 0.00 | 55 | 1025.8 |
| 20260831140351 | 60 | 42 | 0.0 | 0.0 | 0.00 | 0.00 | 0.00 | 53 | 1025.7 |
| 20260831134831 | 61 | 18 | 0.0 | 0.0 | 0.00 | 0.00 | 0.00 | 50 | 1025.5 |
| 20260831133326 | 61 | 26 | 0.0 | 0.0 | 0.00 | 0.00 | 0.00 | 49 | 1025.4 |
| 20260831131820 | 62 | 29 | 0.9 | 0.0 | 0.00 | 0.00 | 0.00 | 48 | 1025.1 |
| 20260831130329 | 62 | 51 | 0.0 | 0.0 | 0.00 | 0.00 | 0.00 | 46 | 1025.2 |
| 20260831124852 | 62 | 53 | 0.0 | 0.0 | 0.00 | 0.00 | 0.00 | 46 | 1025.0 |
| 20260831123316 | 62 | 53 | 0.0 | 0.0 | 0.00 | 0.00 | 0.00 | 45 | 1025.0 |
| 20260831121826 | 62 | 31 | 0.0 | 0.0 | 0.00 | 0.00 | 0.00 | 44 | 1024.7 |
| 20260831120336 | 63 | 257 | 0.0 | 0.0 | 0.00 | 0.00 | 0.00 | 43 | 1024.6 |
| 20260831114813 | 62 | 276 | 0.0 | 0.0 | 0.00 | 0.00 | 0.00 | 46 | 1024.3 |
| 20260831113312 | 61 | 263 | 0.9 | 0.0 | 0.00 | 0.00 | 0.00 | 47 | 1024.1 |
| 20260831111820 | 60 | 19 | 0.0 | 0.0 | 0.00 | 0.00 | 0.00 | 50 | 1024.1 |
| 20260831110317 | 60 | 44 | 0.0 | 0.0 | 0.00 | 0.00 | 0.00 | 50 | 1024.1 |
| 20260831104813 | 60 | 51 | 0.0 | 0.0 | 0.00 | 0.00 | 0.00 | 51 | 1024.1 |
| 20260831103320 | 61 | 43 | 0.0 | 0.0 | 0.00 | 0.00 | 0.00 | 49 | 1024.0 |
| 20260831101824 | 60 | 50 | 0.0 | 0.0 | 0.00 | 0.00 | 0.00 | 49 | 1024.1 |
| 20260831100342 | 61 | 46 | 0.0 | 0.0 | 0.00 | 0.00 | 0.00 | 48 | 1023.9 |
| 20260831094838 | 61 | 42 | 0.0 | 0.0 | 0.00 | 0.00 | 0.00 | 47 | 1023.7 |
| 20260831093325 | 61 | 40 | 0.0 | 0.0 | 0.00 | 0.00 | 0.00 | 47 | 1023.6 |
| 20260831091812 | 62 | 40 | 0.0 | 0.0 | 0.00 | 0.00 | 0.00 | 46 | 1023.6 |
| 20260831090313 | 62 | 32 | 0.0 | 0.0 | 0.00 | 0.00 | 0.00 | 46 | 1023.3 |
| 20260831084842 | 61 | 267 | 0.0 | 0.0 | 0.00 | 0.00 | 0.00 | 48 | 1023.2 |
| 20260831083337 | 61 | 30 | 0.0 | 0.0 | 0.00 | 0.00 | 0.00 | 50 | 1023.3 |
| 20260831081817 | 61 | 31 | 0.0 | 0.0 | 0.00 | 0.00 | 0.00 | 50 | 1023.4 |